Farragut, Tennessee
Current Conditions -  °F | °C
As of 7:53 AM on Sunday 23 Nov 2014 (Local Time) from KTYS Reporting Station
Overcast Overcast  
Wind Chill: 41°   Ceiling: 10000
Heat Index: 45°   Visibility: 10mi
Dew Point: 34°   Wind: 8mph
Humidity: 65%   Direction: 50°NE
Pressure: 30.02"   Gusts: NA
Location:  35.8674°N, 84.0989°W
Report Text: KTYS 231253Z 05007KT 10SM FEW015 BKN100 OVC150 07/01 A3002 RMK AO2 SLP166 T00720011
Loading
Personal Weather Stations






























Interactive Weather Map New forecast layout! Learn more

10-Day Weather Forecast

Advertisements
Track Severe Weather on mobile